sensor_id;sensor_type;location;lat;lon;timestamp;pressure;altitude;pressure_sealevel;temperature;humidity
61710;BME280;47633;51.494;5.386;2023-07-02T00:01:02;100667.06;;;23.80;50.78
61710;BME280;47633;51.494;5.386;2023-07-02T00:03:27;100655.38;;;23.81;51.14
61710;BME280;47633;51.494;5.386;2023-07-02T00:05:52;100650.59;;;23.77;50.58
61710;BME280;47633;51.494;5.386;2023-07-02T00:08:21;100661.72;;;23.80;50.56
61710;BME280;47633;51.494;5.386;2023-07-02T00:10:46;100655.72;;;23.78;50.75
61710;BME280;47633;51.494;5.386;2023-07-02T00:13:11;100660.06;;;23.79;50.42
61710;BME280;47633;51.494;5.386;2023-07-02T00:15:36;100657.72;;;23.76;50.65
61710;BME280;47633;51.494;5.386;2023-07-02T00:18:02;100654.91;;;23.78;50.87
61710;BME280;47633;51.494;5.386;2023-07-02T00:20:27;100655.91;;;23.77;50.47
61710;BME280;47633;51.494;5.386;2023-07-02T00:22:52;100656.91;;;23.76;50.29
61710;BME280;47633;51.494;5.386;2023-07-02T00:25:19;100659.41;;;23.77;50.70
61710;BME280;47633;51.494;5.386;2023-07-02T00:27:45;100660.56;;;23.75;50.62
61710;BME280;47633;51.494;5.386;2023-07-02T00:30:11;100657.72;;;23.76;50.54
61710;BME280;47633;51.494;5.386;2023-07-02T00:32:36;100655.22;;;23.75;50.42
61710;BME280;47633;51.494;5.386;2023-07-02T00:35:01;100646.59;;;23.72;50.38
61710;BME280;47633;51.494;5.386;2023-07-02T00:37:27;100650.94;;;23.73;50.69
61710;BME280;47633;51.494;5.386;2023-07-02T00:39:52;100647.41;;;23.73;50.74
61710;BME280;47633;51.494;5.386;2023-07-02T00:42:17;100641.44;;;23.71;50.65
61710;BME280;47633;51.494;5.386;2023-07-02T00:44:43;100648.25;;;23.73;50.42
61710;BME280;47633;51.494;5.386;2023-07-02T00:47:09;100647.41;;;23.73;50.41
61710;BME280;47633;51.494;5.386;2023-07-02T00:49:34;100645.78;;;23.72;50.30
61710;BME280;47633;51.494;5.386;2023-07-02T00:52:00;100652.75;;;23.73;50.43
61710;BME280;47633;51.494;5.386;2023-07-02T00:54:28;100660.06;;;23.71;50.05
61710;BME280;47633;51.494;5.386;2023-07-02T00:56:53;100661.75;;;23.72;50.12
61710;BME280;47633;51.494;5.386;2023-07-02T00:59:19;100663.53;;;23.71;50.12
61710;BME280;47633;51.494;5.386;2023-07-02T01:01:44;100664.56;;;23.70;50.06
61710;BME280;47633;51.494;5.386;2023-07-02T01:04:17;100670.03;;;23.69;49.91
61710;BME280;47633;51.494;5.386;2023-07-02T01:06:42;100671.69;;;23.70;49.99
61710;BME280;47633;51.494;5.386;2023-07-02T01:09:08;100671.69;;;23.70;49.88
61710;BME280;47633;51.494;5.386;2023-07-02T01:11:37;100671.84;;;23.68;49.72
61710;BME280;47633;51.494;5.386;2023-07-02T01:14:13;100673.84;;;23.66;50.16
61710;BME280;47633;51.494;5.386;2023-07-02T01:16:42;100671.84;;;23.68;49.92
61710;BME280;47633;51.494;5.386;2023-07-02T01:19:13;100673.69;;;23.68;49.85
61710;BME280;47633;51.494;5.386;2023-07-02T01:21:44;100677.00;;;23.70;49.73
61710;BME280;47633;51.494;5.386;2023-07-02T01:24:10;100680.69;;;23.69;49.76
61710;BME280;47633;51.494;5.386;2023-07-02T01:26:36;100686.19;;;23.67;49.92
61710;BME280;47633;51.494;5.386;2023-07-02T01:31:39;100682.66;;;23.67;49.93
61710;BME280;47633;51.494;5.386;2023-07-02T01:34:05;100685.00;;;23.62;49.80
61710;BME280;47633;51.494;5.386;2023-07-02T01:36:32;100692.47;;;23.66;49.46
61710;BME280;47633;51.494;5.386;2023-07-02T01:38:58;100685.47;;;23.65;49.56
61710;BME280;47633;51.494;5.386;2023-07-02T01:41:23;100689.81;;;23.66;49.89
61710;BME280;47633;51.494;5.386;2023-07-02T01:43:48;100699.47;;;23.67;49.86
61710;BME280;47633;51.494;5.386;2023-07-02T01:46:14;100700.47;;;23.66;49.76
61710;BME280;47633;51.494;5.386;2023-07-02T01:48:39;100700.47;;;23.66;49.77
61710;BME280;47633;51.494;5.386;2023-07-02T01:51:04;100694.31;;;23.66;49.73
61710;BME280;47633;51.494;5.386;2023-07-02T01:53:30;100701.59;;;23.64;49.59
61710;BME280;47633;51.494;5.386;2023-07-02T01:55:55;100697.13;;;23.64;49.78
61710;BME280;47633;51.494;5.386;2023-07-02T01:58:20;100702.47;;;23.64;49.37
61710;BME280;47633;51.494;5.386;2023-07-02T02:00:46;100702.47;;;23.64;49.22
61710;BME280;47633;51.494;5.386;2023-07-02T02:03:11;100694.66;;;23.63;49.19
61710;BME280;47633;51.494;5.386;2023-07-02T02:05:36;100699.31;;;23.61;49.31
61710;BME280;47633;51.494;5.386;2023-07-02T02:08:02;100698.28;;;23.62;49.47
61710;BME280;47633;51.494;5.386;2023-07-02T02:10:27;100698.28;;;23.62;49.53
61710;BME280;47633;51.494;5.386;2023-07-02T02:12:52;100702.94;;;23.60;49.14
61710;BME280;47633;51.494;5.386;2023-07-02T02:15:18;100707.28;;;23.61;49.64
61710;BME280;47633;51.494;5.386;2023-07-02T02:17:43;100711.75;;;23.60;49.57
61710;BME280;47633;51.494;5.386;2023-07-02T02:20:09;100699.47;;;23.59;49.15
61710;BME280;47633;51.494;5.386;2023-07-02T02:22:34;100699.47;;;23.59;49.38
61710;BME280;47633;51.494;5.386;2023-07-02T02:25:00;100699.31;;;23.61;49.07
61710;BME280;47633;51.494;5.386;2023-07-02T02:27:25;100709.94;;;23.61;49.50
61710;BME280;47633;51.494;5.386;2023-07-02T02:29:50;100709.09;;;23.60;49.21
61710;BME280;47633;51.494;5.386;2023-07-02T02:32:16;100704.78;;;23.59;49.09
61710;BME280;47633;51.494;5.386;2023-07-02T02:34:44;100703.94;;;23.59;49.54
61710;BME280;47633;51.494;5.386;2023-07-02T02:37:09;100710.28;;;23.58;49.20
61710;BME280;47633;51.494;5.386;2023-07-02T02:39:35;100705.94;;;23.57;49.24
61710;BME280;47633;51.494;5.386;2023-07-02T02:42:00;100718.25;;;23.58;49.41
61710;BME280;47633;51.494;5.386;2023-07-02T02:44:25;100712.09;;;23.57;49.43
61710;BME280;47633;51.494;5.386;2023-07-02T02:46:51;100717.56;;;23.55;49.03
61710;BME280;47633;51.494;5.386;2023-07-02T02:49:16;100723.56;;;23.58;48.96
61710;BME280;47633;51.494;5.386;2023-07-02T02:51:41;100728.03;;;23.57;49.03
61710;BME280;47633;51.494;5.386;2023-07-02T02:54:06;100722.06;;;23.55;49.38
61710;BME280;47633;51.494;5.386;2023-07-02T02:56:32;100721.91;;;23.57;49.11
61710;BME280;47633;51.494;5.386;2023-07-02T02:58:57;100727.22;;;23.57;48.88
61710;BME280;47633;51.494;5.386;2023-07-02T03:01:22;100732.69;;;23.55;49.51
61710;BME280;47633;51.494;5.386;2023-07-02T03:03:48;100740.84;;;23.53;48.90
61710;BME280;47633;51.494;5.386;2023-07-02T03:06:14;100741.66;;;23.54;49.22
61710;BME280;47633;51.494;5.386;2023-07-02T03:08:40;100735.03;;;23.50;49.00
61710;BME280;47633;51.494;5.386;2023-07-02T03:11:05;100741.66;;;23.54;48.84
61710;BME280;47633;51.494;5.386;2023-07-02T03:13:31;100751.47;;;23.53;48.79
61710;BME280;47633;51.494;5.386;2023-07-02T03:15:56;100755.13;;;23.52;49.00
61710;BME280;47633;51.494;5.386;2023-07-02T03:18:21;100761.31;;;23.53;48.87
61710;BME280;47633;51.494;5.386;2023-07-02T03:20:47;100757.78;;;23.52;49.13
61710;BME280;47633;51.494;5.386;2023-07-02T03:23:12;100756.81;;;23.53;48.99
61710;BME280;47633;51.494;5.386;2023-07-02T03:25:37;100753.63;;;23.50;49.18
61710;BME280;47633;51.494;5.386;2023-07-02T03:28:03;100759.78;;;23.50;48.74
61710;BME280;47633;51.494;5.386;2023-07-02T03:30:28;100765.75;;;23.52;48.85
61710;BME280;47633;51.494;5.386;2023-07-02T03:32:54;100764.28;;;23.50;48.70
61710;BME280;47633;51.494;5.386;2023-07-02T03:35:20;100768.75;;;23.49;49.13
61710;BME280;47633;51.494;5.386;2023-07-02T03:37:45;100766.94;;;23.50;48.70
61710;BME280;47633;51.494;5.386;2023-07-02T03:40:11;100776.72;;;23.49;48.73
61710;BME280;47633;51.494;5.386;2023-07-02T03:42:36;100773.25;;;23.49;48.93
61710;BME280;47633;51.494;5.386;2023-07-02T03:45:02;100774.06;;;23.49;48.99
61710;BME280;47633;51.494;5.386;2023-07-02T03:47:28;100774.06;;;23.49;48.94
61710;BME280;47633;51.494;5.386;2023-07-02T03:49:54;100768.91;;;23.48;48.81
61710;BME280;47633;51.494;5.386;2023-07-02T03:52:19;100773.41;;;23.47;48.41
61710;BME280;47633;51.494;5.386;2023-07-02T03:54:44;100784.69;;;23.49;48.75
61710;BME280;47633;51.494;5.386;2023-07-02T03:57:09;100783.06;;;23.48;48.45
61710;BME280;47633;51.494;5.386;2023-07-02T03:59:35;100785.72;;;23.48;48.70
61710;BME280;47633;51.494;5.386;2023-07-02T04:02:00;100781.22;;;23.49;48.70
61710;BME280;47633;51.494;5.386;2023-07-02T04:04:25;100786.69;;;23.47;48.59
61710;BME280;47633;51.494;5.386;2023-07-02T04:06:51;100785.03;;;23.46;48.26
61710;BME280;47633;51.494;5.386;2023-07-02T04:09:16;100793.69;;;23.48;48.49
61710;BME280;47633;51.494;5.386;2023-07-02T04:11:43;100791.19;;;23.47;48.65
61710;BME280;47633;51.494;5.386;2023-07-02T04:14:08;100788.69;;;23.45;48.60
61710;BME280;47633;51.494;5.386;2023-07-02T04:16:33;100791.34;;;23.45;48.21
61710;BME280;47633;51.494;5.386;2023-07-02T04:18:59;100790.50;;;23.45;48.39
61710;BME280;47633;51.494;5.386;2023-07-02T04:21:24;100791.19;;;23.47;47.99
61710;BME280;47633;51.494;5.386;2023-07-02T04:23:49;100794.00;;;23.45;48.10
61710;BME280;47633;51.494;5.386;2023-07-02T04:26:15;100797.66;;;23.44;48.04
61710;BME280;47633;51.494;5.386;2023-07-02T04:28:40;100794.00;;;23.45;48.44
61710;BME280;47633;51.494;5.386;2023-07-02T04:31:05;100794.00;;;23.45;48.44
61710;BME280;47633;51.494;5.386;2023-07-02T04:33:30;100800.31;;;23.44;48.00
61710;BME280;47633;51.494;5.386;2023-07-02T04:36:04;100796.84;;;23.44;48.38
61710;BME280;47633;51.494;5.386;2023-07-02T04:38:29;100802.97;;;23.44;47.98
61710;BME280;47633;51.494;5.386;2023-07-02T04:40:54;100799.66;;;23.42;48.33
61710;BME280;47633;51.494;5.386;2023-07-02T04:43:27;100799.66;;;23.42;48.09
61710;BME280;47633;51.494;5.386;2023-07-02T04:45:54;100808.63;;;23.41;48.29
61710;BME280;47633;51.494;5.386;2023-07-02T04:48:20;100807.78;;;23.41;48.01
61710;BME280;47633;51.494;5.386;2023-07-02T04:50:45;100811.28;;;23.41;48.02
61710;BME280;47633;51.494;5.386;2023-07-02T04:53:10;100805.13;;;23.41;48.13
61710;BME280;47633;51.494;5.386;2023-07-02T04:55:36;100809.47;;;23.42;47.97
61710;BME280;47633;51.494;5.386;2023-07-02T04:58:01;100811.28;;;23.41;48.20
61710;BME280;47633;51.494;5.386;2023-07-02T05:00:26;100817.44;;;23.42;48.19
61710;BME280;47633;51.494;5.386;2023-07-02T05:02:52;100820.25;;;23.40;47.75
61710;BME280;47633;51.494;5.386;2023-07-02T05:05:17;100817.59;;;23.40;47.57
61710;BME280;47633;51.494;5.386;2023-07-02T05:07:43;100826.41;;;23.41;47.50
61710;BME280;47633;51.494;5.386;2023-07-02T05:10:08;100822.94;;;23.40;47.69
61710;BME280;47633;51.494;5.386;2023-07-02T05:12:34;100830.22;;;23.38;47.97
61710;BME280;47633;51.494;5.386;2023-07-02T05:14:59;100823.91;;;23.39;47.49
61710;BME280;47633;51.494;5.386;2023-07-02T05:17:24;100829.22;;;23.39;47.58
61710;BME280;47633;51.494;5.386;2023-07-02T05:19:50;100832.88;;;23.38;47.51
61710;BME280;47633;51.494;5.386;2023-07-02T05:22:15;100839.88;;;23.39;47.83
61710;BME280;47633;51.494;5.386;2023-07-02T05:24:41;100833.03;;;23.36;47.49
61710;BME280;47633;51.494;5.386;2023-07-02T05:27:06;100843.50;;;23.38;47.24
61710;BME280;47633;51.494;5.386;2023-07-02T05:29:31;100853.16;;;23.39;47.20
61710;BME280;47633;51.494;5.386;2023-07-02T05:31:57;100851.47;;;23.38;47.20
61710;BME280;47633;51.494;5.386;2023-07-02T05:34:22;100853.16;;;23.39;47.51
61710;BME280;47633;51.494;5.386;2023-07-02T05:36:47;100858.78;;;23.36;46.87
61710;BME280;47633;51.494;5.386;2023-07-02T05:39:13;100863.78;;;23.39;46.85
61710;BME280;47633;51.494;5.386;2023-07-02T05:41:38;100867.44;;;23.38;47.42
61710;BME280;47633;51.494;5.386;2023-07-02T05:44:03;100858.78;;;23.36;46.87
61710;BME280;47633;51.494;5.386;2023-07-02T05:46:29;100864.13;;;23.36;46.98
61710;BME280;47633;51.494;5.386;2023-07-02T05:48:54;100865.78;;;23.37;46.93
61710;BME280;47633;51.494;5.386;2023-07-02T05:51:23;100868.59;;;23.35;47.22
61710;BME280;47633;51.494;5.386;2023-07-02T05:53:49;100872.09;;;23.36;46.73
61710;BME280;47633;51.494;5.386;2023-07-02T05:56:15;100874.75;;;23.36;47.07
61710;BME280;47633;51.494;5.386;2023-07-02T05:58:40;100865.94;;;23.35;47.13
61710;BME280;47633;51.494;5.386;2023-07-02T06:01:05;100876.44;;;23.37;46.71
61710;BME280;47633;51.494;5.386;2023-07-02T06:03:31;100878.22;;;23.36;46.63
61710;BME280;47633;51.494;5.386;2023-07-02T06:05:57;100878.38;;;23.35;47.03
61710;BME280;47633;51.494;5.386;2023-07-02T06:08:22;100885.38;;;23.36;46.55
61710;BME280;47633;51.494;5.386;2023-07-02T06:10:48;100883.72;;;23.35;46.46
61710;BME280;47633;51.494;5.386;2023-07-02T06:13:14;100882.72;;;23.36;46.50
61710;BME280;47633;51.494;5.386;2023-07-02T06:15:39;100882.88;;;23.34;46.94
61710;BME280;47633;51.494;5.386;2023-07-02T06:18:05;100889.03;;;23.35;46.37
61710;BME280;47633;51.494;5.386;2023-07-02T06:20:30;100880.22;;;23.34;46.42
61710;BME280;47633;51.494;5.386;2023-07-02T06:22:55;100894.34;;;23.35;46.76
61710;BME280;47633;51.494;5.386;2023-07-02T06:25:21;100888.03;;;23.36;46.76
61710;BME280;47633;51.494;5.386;2023-07-02T06:27:46;100896.84;;;23.36;46.62
61710;BME280;47633;51.494;5.386;2023-07-02T06:30:11;100891.53;;;23.36;46.52
61710;BME280;47633;51.494;5.386;2023-07-02T06:32:37;100904.00;;;23.36;46.29
61710;BME280;47633;51.494;5.386;2023-07-02T06:35:03;100912.13;;;23.34;46.74
61710;BME280;47633;51.494;5.386;2023-07-02T06:37:28;100912.13;;;23.34;46.79
61710;BME280;47633;51.494;5.386;2023-07-02T06:39:53;100905.13;;;23.33;46.55
61710;BME280;47633;51.494;5.386;2023-07-02T06:42:18;100911.31;;;23.34;46.66
61710;BME280;47633;51.494;5.386;2023-07-02T06:44:44;100914.13;;;23.32;44.48
61710;BME280;47633;51.494;5.386;2023-07-02T06:47:09;100911.63;;;23.31;45.18
61710;BME280;47633;51.494;5.386;2023-07-02T06:49:34;100915.09;;;23.31;46.37
61710;BME280;47633;51.494;5.386;2023-07-02T06:52:00;100921.25;;;23.32;46.76
61710;BME280;47633;51.494;5.386;2023-07-02T06:54:26;100923.91;;;23.32;46.57
61710;BME280;47633;51.494;5.386;2023-07-02T06:56:51;100921.09;;;23.33;46.84
61710;BME280;47633;51.494;5.386;2023-07-02T06:59:23;100930.06;;;23.32;46.88
61710;BME280;47633;51.494;5.386;2023-07-02T07:01:49;100935.41;;;23.32;46.77
61710;BME280;47633;51.494;5.386;2023-07-02T07:04:14;100926.41;;;23.33;47.27
61710;BME280;47633;51.494;5.386;2023-07-02T07:06:39;100925.59;;;23.33;46.67
61710;BME280;47633;51.494;5.386;2023-07-02T07:09:05;100930.75;;;23.34;47.22
61710;BME280;47633;51.494;5.386;2023-07-02T07:11:30;100934.22;;;23.35;46.75
61710;BME280;47633;51.494;5.386;2023-07-02T07:13:56;100947.38;;;23.36;47.14
61710;BME280;47633;51.494;5.386;2023-07-02T07:16:21;100941.06;;;23.38;46.99
61710;BME280;47633;51.494;5.386;2023-07-02T07:18:47;100944.56;;;23.38;46.73
61710;BME280;47633;51.494;5.386;2023-07-02T07:21:13;100952.53;;;23.38;47.07
61710;BME280;47633;51.494;5.386;2023-07-02T07:23:39;100948.75;;;23.41;47.26
61710;BME280;47633;51.494;5.386;2023-07-02T07:26:04;100948.06;;;23.39;47.05
61710;BME280;47633;51.494;5.386;2023-07-02T07:28:29;100954.88;;;23.41;46.93
61710;BME280;47633;51.494;5.386;2023-07-02T07:30:55;100959.22;;;23.42;47.41
61710;BME280;47633;51.494;5.386;2023-07-02T07:33:20;100966.88;;;23.45;47.07
61710;BME280;47633;51.494;5.386;2023-07-02T07:35:46;100972.06;;;23.47;47.33
61710;BME280;47633;51.494;5.386;2023-07-02T07:38:13;100976.50;;;23.46;47.02
61710;BME280;47633;51.494;5.386;2023-07-02T07:40:39;100972.88;;;23.47;46.86
61710;BME280;47633;51.494;5.386;2023-07-02T07:43:04;100976.91;;;23.51;47.24
61710;BME280;47633;51.494;5.386;2023-07-02T07:45:29;100976.59;;;23.54;47.21
61710;BME280;47633;51.494;5.386;2023-07-02T07:47:55;100980.91;;;23.55;47.04
61710;BME280;47633;51.494;5.386;2023-07-02T07:50:20;100980.91;;;23.55;47.16
61710;BME280;47633;51.494;5.386;2023-07-02T07:52:45;100981.75;;;23.56;47.37
61710;BME280;47633;51.494;5.386;2023-07-02T07:55:11;100984.41;;;23.56;47.14
61710;BME280;47633;51.494;5.386;2023-07-02T07:57:37;100985.91;;;23.59;46.63
61710;BME280;47633;51.494;5.386;2023-07-02T08:00:03;100991.06;;;23.60;46.90
61710;BME280;47633;51.494;5.386;2023-07-02T08:02:30;100989.06;;;23.62;46.51
61710;BME280;47633;51.494;5.386;2023-07-02T08:04:56;100980.94;;;23.64;46.30
61710;BME280;47633;51.494;5.386;2023-07-02T08:07:21;100984.44;;;23.64;46.16
61710;BME280;47633;51.494;5.386;2023-07-02T08:09:47;100988.59;;;23.67;46.63
61710;BME280;47633;51.494;5.386;2023-07-02T08:12:13;100987.47;;;23.69;45.96
61710;BME280;47633;51.494;5.386;2023-07-02T08:14:38;100984.81;;;23.69;46.37
61710;BME280;47633;51.494;5.386;2023-07-02T08:17:03;100992.47;;;23.72;46.07
61710;BME280;47633;51.494;5.386;2023-07-02T08:19:29;100982.97;;;23.70;46.29
61710;BME280;47633;51.494;5.386;2023-07-02T08:21:54;101004.09;;;23.71;45.68
61710;BME280;47633;51.494;5.386;2023-07-02T08:24:19;100998.78;;;23.71;45.56
61710;BME280;47633;51.494;5.386;2023-07-02T08:26:44;101001.28;;;23.73;45.87
61710;BME280;47633;51.494;5.386;2023-07-02T08:29:10;101000.31;;;23.74;45.57
61710;BME280;47633;51.494;5.386;2023-07-02T08:31:36;101004.78;;;23.73;45.18
61710;BME280;47633;51.494;5.386;2023-07-02T08:34:01;101008.94;;;23.76;45.41
61710;BME280;47633;51.494;5.386;2023-07-02T08:36:27;101012.47;;;23.77;45.30
61710;BME280;47633;51.494;5.386;2023-07-02T08:38:53;101019.94;;;23.81;45.03
61710;BME280;47633;51.494;5.386;2023-07-02T08:41:20;101015.13;;;23.77;44.89
61710;BME280;47633;51.494;5.386;2023-07-02T08:43:46;101016.78;;;23.78;45.34
61710;BME280;47633;51.494;5.386;2023-07-02T08:46:15;101012.13;;;23.80;45.13
61710;BME280;47633;51.494;5.386;2023-07-02T08:48:40;101017.28;;;23.81;45.10
61710;BME280;47633;51.494;5.386;2023-07-02T08:51:06;101014.63;;;23.81;45.18
61710;BME280;47633;51.494;5.386;2023-07-02T08:53:32;101021.63;;;23.82;45.29
61710;BME280;47633;51.494;5.386;2023-07-02T08:56:03;101015.78;;;23.79;45.13
61710;BME280;47633;51.494;5.386;2023-07-02T08:58:29;101020.25;;;23.78;45.32
61710;BME280;47633;51.494;5.386;2023-07-02T09:03:32;101019.13;;;23.81;45.24
61710;BME280;47633;51.494;5.386;2023-07-02T09:05:58;101018.13;;;23.82;44.86
61710;BME280;47633;51.494;5.386;2023-07-02T09:08:24;101020.81;;;23.82;44.84
61710;BME280;47633;51.494;5.386;2023-07-02T09:10:50;101015.47;;;23.82;45.21
61710;BME280;47633;51.494;5.386;2023-07-02T09:13:15;101014.34;;;23.84;44.90
61710;BME280;47633;51.494;5.386;2023-07-02T09:15:41;101010.69;;;23.85;44.35
61710;BME280;47633;51.494;5.386;2023-07-02T09:18:16;101007.06;;;23.86;44.70
61710;BME280;47633;51.494;5.386;2023-07-02T09:20:42;101006.91;;;23.88;44.36
61710;BME280;47633;51.494;5.386;2023-07-02T09:23:08;101019.19;;;23.89;44.58
61710;BME280;47633;51.494;5.386;2023-07-02T09:25:36;101020.19;;;23.88;44.56
61710;BME280;47633;51.494;5.386;2023-07-02T09:28:01;101016.53;;;23.89;44.18
61710;BME280;47633;51.494;5.386;2023-07-02T09:30:27;101021.84;;;23.89;44.30
61710;BME280;47633;51.494;5.386;2023-07-02T09:32:52;101011.75;;;23.93;44.11
61710;BME280;47633;51.494;5.386;2023-07-02T09:35:19;101015.69;;;23.88;43.93
61710;BME280;47633;51.494;5.386;2023-07-02T09:37:46;101011.75;;;23.93;44.13
61710;BME280;47633;51.494;5.386;2023-07-02T09:40:12;101010.06;;;23.92;43.67
61710;BME280;47633;51.494;5.386;2023-07-02T09:42:38;101012.22;;;23.88;43.79
61710;BME280;47633;51.494;5.386;2023-07-02T09:45:07;101023.03;;;23.86;44.24
61710;BME280;47633;51.494;5.386;2023-07-02T09:47:35;101009.88;;;23.85;44.14
61710;BME280;47633;51.494;5.386;2023-07-02T09:50:04;101023.69;;;23.88;44.22
61710;BME280;47633;51.494;5.386;2023-07-02T09:52:34;101020.56;;;23.93;43.66
61710;BME280;47633;51.494;5.386;2023-07-02T09:55:00;101020.25;;;23.96;43.35
61710;BME280;47633;51.494;5.386;2023-07-02T09:57:26;101018.09;;;24.00;43.78
61710;BME280;47633;51.494;5.386;2023-07-02T09:59:52;101019.22;;;23.97;43.32
61710;BME280;47633;51.494;5.386;2023-07-02T10:02:18;101019.06;;;23.99;43.49
61710;BME280;47633;51.494;5.386;2023-07-02T10:04:45;101029.06;;;23.97;43.99
61710;BME280;47633;51.494;5.386;2023-07-02T10:07:11;101030.72;;;23.98;43.50
61710;BME280;47633;51.494;5.386;2023-07-02T10:09:44;101034.03;;;23.92;44.08
61710;BME280;47633;51.494;5.386;2023-07-02T10:12:21;101039.34;;;23.92;44.11
61710;BME280;47633;51.494;5.386;2023-07-02T10:14:48;101041.19;;;23.91;44.08
61710;BME280;47633;51.494;5.386;2023-07-02T10:17:53;101039.34;;;23.92;43.97
61710;BME280;47633;51.494;5.386;2023-07-02T10:20:19;101038.69;;;23.89;43.58
61710;BME280;47633;51.494;5.386;2023-07-02T10:22:56;101043.16;;;23.89;44.10
61710;BME280;47633;51.494;5.386;2023-07-02T10:25:26;101039.16;;;23.85;44.17
61710;BME280;47633;51.494;5.386;2023-07-02T10:27:52;101050.63;;;23.85;44.15
61710;BME280;47633;51.494;5.386;2023-07-02T10:30:17;101035.75;;;23.83;44.26
61710;BME280;47633;51.494;5.386;2023-07-02T10:32:43;101038.41;;;23.83;44.21
61710;BME280;47633;51.494;5.386;2023-07-02T10:35:15;101035.09;;;23.81;44.47
61710;BME280;47633;51.494;5.386;2023-07-02T10:37:41;101025.22;;;23.91;43.84
61710;BME280;47633;51.494;5.386;2023-07-02T10:40:07;101043.69;;;23.93;44.16
61710;BME280;47633;51.494;5.386;2023-07-02T10:42:33;101052.50;;;23.93;44.24
61710;BME280;47633;51.494;5.386;2023-07-02T10:44:59;101059.50;;;23.94;43.95
61710;BME280;47633;51.494;5.386;2023-07-02T10:47:24;101062.66;;;23.98;43.69
61710;BME280;47633;51.494;5.386;2023-07-02T10:49:50;101057.50;;;23.96;44.39
61710;BME280;47633;51.494;5.386;2023-07-02T10:52:15;101061.16;;;23.95;44.31
61710;BME280;47633;51.494;5.386;2023-07-02T10:54:46;101052.50;;;23.93;44.55
61710;BME280;47633;51.494;5.386;2023-07-02T10:57:17;101044.00;;;23.89;44.12
61710;BME280;47633;51.494;5.386;2023-07-02T10:59:45;101051.50;;;23.94;44.56
61710;BME280;47633;51.494;5.386;2023-07-02T11:02:10;101052.66;;;23.92;44.72
61710;BME280;47633;51.494;5.386;2023-07-02T11:04:36;101048.78;;;23.86;44.33
61710;BME280;47633;51.494;5.386;2023-07-02T11:07:02;101047.97;;;23.85;44.17
61710;BME280;47633;51.494;5.386;2023-07-02T11:09:28;101043.75;;;23.83;44.47
61710;BME280;47633;51.494;5.386;2023-07-02T11:11:58;101053.56;;;23.82;44.99
61710;BME280;47633;51.494;5.386;2023-07-02T11:14:35;101064.59;;;23.87;44.54
61710;BME280;47633;51.494;5.386;2023-07-02T11:17:03;101059.28;;;23.87;44.87
61710;BME280;47633;51.494;5.386;2023-07-02T11:19:33;101065.59;;;23.86;44.77
61710;BME280;47633;51.494;5.386;2023-07-02T11:21:59;101058.75;;;23.84;44.34
61710;BME280;47633;51.494;5.386;2023-07-02T11:24:35;101066.59;;;23.85;44.47
61710;BME280;47633;51.494;5.386;2023-07-02T11:27:03;101066.28;;;23.88;44.05
61710;BME280;47633;51.494;5.386;2023-07-02T11:29:29;101060.78;;;23.90;44.67
61710;BME280;47633;51.494;5.386;2023-07-02T11:32:04;101059.13;;;23.89;44.76
61710;BME280;47633;51.494;5.386;2023-07-02T11:34:30;101059.66;;;23.93;44.33
61710;BME280;47633;51.494;5.386;2023-07-02T11:36:55;101059.81;;;23.91;44.41
61710;BME280;47633;51.494;5.386;2023-07-02T11:39:20;101057.66;;;23.95;44.32
61710;BME280;47633;51.494;5.386;2023-07-02T11:41:47;101060.47;;;23.93;45.23
61710;BME280;47633;51.494;5.386;2023-07-02T11:44:13;101063.50;;;23.98;45.91
61710;BME280;47633;51.494;5.386;2023-07-02T11:46:39;101059.53;;;24.02;47.14
61710;BME280;47633;51.494;5.386;2023-07-02T11:49:04;101048.03;;;24.02;47.54
61710;BME280;47633;51.494;5.386;2023-07-02T11:51:32;101048.19;;;24.00;47.01
61710;BME280;47633;51.494;5.386;2023-07-02T11:53:58;101044.53;;;24.01;46.86
61710;BME280;47633;51.494;5.386;2023-07-02T11:56:23;101052.38;;;24.03;46.40
61710;BME280;47633;51.494;5.386;2023-07-02T11:58:49;101045.22;;;24.03;46.98
61710;BME280;47633;51.494;5.386;2023-07-02T12:01:14;101050.38;;;24.05;46.88
61710;BME280;47633;51.494;5.386;2023-07-02T12:03:39;101026.75;;;24.02;47.08
61710;BME280;47633;51.494;5.386;2023-07-02T12:06:05;101039.41;;;24.08;47.21
61710;BME280;47633;51.494;5.386;2023-07-02T12:08:30;101038.94;;;24.13;46.23
61710;BME280;47633;51.494;5.386;2023-07-02T12:10:55;101047.09;;;24.11;44.65
61710;BME280;47633;51.494;5.386;2023-07-02T12:13:21;101049.25;;;24.07;43.97
61710;BME280;47633;51.494;5.386;2023-07-02T12:15:47;101050.22;;;24.06;44.66
61710;BME280;47633;51.494;5.386;2023-07-02T12:18:12;101053.41;;;24.10;45.05
61710;BME280;47633;51.494;5.386;2023-07-02T12:20:41;101055.38;;;24.08;45.26
61710;BME280;47633;51.494;5.386;2023-07-02T12:23:06;101051.06;;;24.07;46.00
61710;BME280;47633;51.494;5.386;2023-07-02T12:25:32;101052.88;;;24.06;46.12
61710;BME280;47633;51.494;5.386;2023-07-02T12:27:57;101055.06;;;24.11;46.20
61710;BME280;47633;51.494;5.386;2023-07-02T12:30:23;101046.09;;;24.12;45.68
61710;BME280;47633;51.494;5.386;2023-07-02T12:32:48;101052.25;;;24.13;45.26
61710;BME280;47633;51.494;5.386;2023-07-02T12:35:13;101053.06;;;24.13;45.25
61710;BME280;47633;51.494;5.386;2023-07-02T12:37:46;101054.59;;;24.16;45.62
61710;BME280;47633;51.494;5.386;2023-07-02T12:40:12;101039.44;;;24.16;45.05
61710;BME280;47633;51.494;5.386;2023-07-02T12:42:37;101039.44;;;24.16;45.53
61710;BME280;47633;51.494;5.386;2023-07-02T12:45:04;101047.44;;;24.16;45.05
61710;BME280;47633;51.494;5.386;2023-07-02T12:47:30;101044.78;;;24.16;45.27
61710;BME280;47633;51.494;5.386;2023-07-02T12:49:55;101043.78;;;24.17;45.44